Time;durP1;ratioP1;P1;durP2;ratioP2;P2;SDS_P1;SDS_P2;PMS_P1;PMS_P2;Temp;Humidity;BMP_temperature;BMP_pressure;BME280_temperature;BME280_humidity;BME280_pressure;Samples;Min_cycle;Max_cycle;Signal;HPM_P1;HPM_P2
2022/01/18 00:00:50;;;;;;;27.23;5.03;;;8.00;99.90;;;;;;5112564;28;20030;-76
2022/01/18 00:03:16;;;;;;;29.53;4.87;;;8.00;99.90;;;;;;5112580;28;20032;-76
2022/01/18 00:05:44;;;;;;;33.30;4.47;;;8.10;99.90;;;;;;5113867;28;20036;-76
2022/01/18 00:08:10;;;;;;;30.87;4.50;;;8.10;99.90;;;;;;5113675;28;20120;-76
2022/01/18 00:10:36;;;;;;;38.37;5.80;;;8.00;99.90;;;;;;5112512;28;20514;-76
2022/01/18 00:15:38;;;;;;;37.13;5.70;;;8.10;99.90;;;;;;5113863;28;20484;-74
2022/01/18 00:18:07;;;;;;;29.13;5.83;;;8.10;99.90;;;;;;5112865;28;20030;-73
2022/01/18 00:23:18;;;;;;;32.40;5.20;;;8.10;99.90;;;;;;5113998;28;20035;-74
2022/01/18 00:25:48;;;;;;;28.10;5.87;;;8.10;99.90;;;;;;5113628;28;20031;-74
2022/01/18 00:28:14;;;;;;;32.87;5.57;;;8.10;99.90;;;;;;5095819;28;20031;-75
2022/01/18 00:35:40;;;;;;;33.20;6.50;;;8.10;99.90;;;;;;5113810;28;20468;-74
2022/01/18 00:38:16;;;;;;;30.33;6.87;;;8.10;99.90;;;;;;5114010;28;20388;-74
2022/01/18 00:40:42;;;;;;;30.37;6.87;;;8.10;99.90;;;;;;5117656;28;20032;-74
2022/01/18 00:43:07;;;;;;;36.13;8.43;;;8.00;99.90;;;;;;5117957;28;20039;-74
2022/01/18 00:45:33;;;;;;;37.20;8.60;;;8.00;99.90;;;;;;5116443;28;20027;-76
2022/01/18 00:48:00;;;;;;;33.53;7.43;;;8.00;99.90;;;;;;5116145;28;20391;-76
2022/01/18 00:50:30;;;;;;;35.83;7.63;;;8.00;99.90;;;;;;5116152;28;20506;-76
2022/01/18 00:52:56;;;;;;;29.17;7.10;;;7.90;99.90;;;;;;5116169;28;20031;-76
2022/01/18 00:55:25;;;;;;;39.00;7.83;;;7.90;99.90;;;;;;5116100;28;20028;-74
2022/01/18 00:57:50;;;;;;;30.90;8.17;;;7.80;99.90;;;;;;5116010;28;20027;-74
2022/01/18 01:00:16;;;;;;;33.67;8.37;;;7.90;99.90;;;;;;5082107;28;20038;-74
2022/01/18 01:02:42;;;;;;;38.63;9.43;;;7.90;99.90;;;;;;5117306;28;20463;-74
2022/01/18 01:05:08;;;;;;;35.20;8.00;;;7.80;99.90;;;;;;5115998;28;20030;-76
2022/01/18 01:07:37;;;;;;;26.73;8.57;;;7.80;99.90;;;;;;5116015;28;20039;-76
2022/01/18 01:10:03;;;;;;;39.07;8.77;;;7.80;99.90;;;;;;5115884;28;20082;-76
2022/01/18 01:12:29;;;;;;;33.00;8.77;;;7.80;99.90;;;;;;5098640;28;20085;-76
2022/01/18 01:15:02;;;;;;;34.83;8.83;;;7.80;99.90;;;;;;5117281;28;20027;-74
2022/01/18 01:36:34;;;;;;;35.90;8.68;;;7.70;99.90;;;;;;5115890;28;19958;-74
2022/01/18 01:42:03;;;;;;;34.28;8.85;;;7.70;99.90;;;;;;5116792;28;20396;-74
2022/01/18 01:44:42;;;;;;;37.30;9.10;;;7.70;99.90;;;;;;5115146;28;20142;-74
2022/01/18 01:47:09;;;;;;;38.50;10.60;;;7.70;99.90;;;;;;5115235;28;20023;-74
2022/01/18 01:49:35;;;;;;;37.37;9.57;;;7.60;99.90;;;;;;5114718;28;20034;-74
2022/01/18 01:52:05;;;;;;;48.17;9.90;;;7.70;99.90;;;;;;5098201;28;20027;-74
2022/01/18 01:54:30;;;;;;;39.10;9.70;;;7.70;99.90;;;;;;5116383;28;20042;-74
2022/01/18 01:56:56;;;;;;;34.87;9.57;;;7.70;99.90;;;;;;5098287;28;20471;-74
2022/01/18 01:59:22;;;;;;;30.40;9.27;;;7.70;99.90;;;;;;5116202;28;20035;-74
2022/01/18 02:01:49;;;;;;;41.53;10.33;;;7.70;99.90;;;;;;5116376;28;20031;-76
2022/01/18 02:04:15;;;;;;;35.87;9.40;;;7.70;99.90;;;;;;5114950;28;20421;-76
2022/01/18 02:06:41;;;;;;;39.03;10.13;;;7.70;99.90;;;;;;5114836;28;20035;-76
2022/01/18 02:09:07;;;;;;;37.33;10.20;;;7.70;99.90;;;;;;5114809;28;20089;-75
2022/01/18 02:11:32;;;;;;;38.43;9.37;;;7.70;99.90;;;;;;5115905;28;20500;-75
2022/01/18 02:13:59;;;;;;;36.57;9.60;;;7.70;99.90;;;;;;5115749;28;20066;-75
2022/01/18 02:21:53;;;;;;;35.40;9.55;;;7.70;99.90;;;;;;5115989;28;20070;-76
2022/01/18 02:24:21;;;;;;;40.40;9.80;;;7.70;99.90;;;;;;5097385;28;20035;-76
2022/01/18 02:26:47;;;;;;;34.37;10.17;;;7.70;99.90;;;;;;5097435;28;20032;-76
2022/01/18 02:29:14;;;;;;;36.07;9.57;;;7.70;99.90;;;;;;5114371;28;20061;-76
2022/01/18 02:31:40;;;;;;;36.43;9.20;;;7.70;99.90;;;;;;5115527;28;20499;-76
2022/01/18 02:34:12;;;;;;;43.53;11.37;;;7.70;99.90;;;;;;5115635;28;20023;-76
2022/01/18 02:36:39;;;;;;;42.63;10.23;;;7.80;99.90;;;;;;5115473;28;20098;-75
2022/01/18 02:39:06;;;;;;;37.27;10.47;;;7.70;99.90;;;;;;5114225;28;20036;-76
2022/01/18 02:41:32;;;;;;;47.10;10.70;;;7.70;99.90;;;;;;5114142;28;20051;-76
2022/01/18 02:44:12;;;;;;;36.60;11.07;;;7.70;99.90;;;;;;5114111;28;20047;-76
2022/01/18 02:46:38;;;;;;;32.27;11.17;;;7.70;99.90;;;;;;5115365;28;20038;-76
2022/01/18 02:49:05;;;;;;;44.03;10.60;;;7.70;99.90;;;;;;5113993;28;20043;-76
2022/01/18 02:51:32;;;;;;;34.90;10.57;;;7.70;99.90;;;;;;5114028;28;20035;-76
2022/01/18 02:54:07;;;;;;;36.10;10.60;;;7.70;99.90;;;;;;5113882;28;20020;-76
2022/01/18 02:56:40;;;;;;;45.43;11.83;;;7.60;99.90;;;;;;5115187;28;20024;-76
2022/01/18 02:59:22;;;;;;;41.60;11.30;;;7.70;99.90;;;;;;5115089;28;20459;-76
2022/01/18 03:04:38;;;;;;;52.37;12.33;;;7.70;99.90;;;;;;5115143;28;20047;-75
2022/01/18 03:07:04;;;;;;;36.97;10.73;;;7.60;99.90;;;;;;5113466;28;20035;-76
2022/01/18 03:09:30;;;;;;;43.40;11.17;;;7.70;99.90;;;;;;5096484;28;20072;-76
2022/01/18 03:11:55;;;;;;;45.97;12.13;;;7.60;99.90;;;;;;5114524;28;20048;-75
2022/01/18 03:14:21;;;;;;;44.43;13.03;;;7.60;99.90;;;;;;5113564;28;20024;-76
2022/01/18 03:16:47;;;;;;;56.83;12.07;;;7.70;99.90;;;;;;5114754;28;20149;-76
2022/01/18 03:19:12;;;;;;;44.73;11.60;;;7.60;99.90;;;;;;5114664;28;20035;-76
2022/01/18 03:21:38;;;;;;;57.80;12.90;;;7.60;99.90;;;;;;5096424;28;20030;-74
2022/01/18 03:24:45;;;;;;;51.23;13.93;;;7.60;99.90;;;;;;5113190;28;20104;-73
2022/01/18 03:29:41;;;;;;;43.90;14.43;;;7.60;99.90;;;;;;5114437;28;20109;-74
2022/01/18 03:32:07;;;;;;;57.90;13.10;;;7.60;99.90;;;;;;5113213;28;20495;-74
2022/01/18 03:34:33;;;;;;;53.67;13.00;;;7.60;99.90;;;;;;5096162;28;20063;-74
2022/01/18 03:36:59;;;;;;;50.73;13.03;;;7.60;99.90;;;;;;5113227;28;20038;-76
2022/01/18 03:39:25;;;;;;;55.73;13.37;;;7.60;99.90;;;;;;5113050;28;20025;-76
2022/01/18 03:42:16;;;;;;;49.80;12.53;;;7.50;99.90;;;;;;5114167;28;20361;-75
2022/01/18 03:44:42;;;;;;;47.93;11.70;;;7.60;99.90;;;;;;5113009;28;20027;-76
2022/01/18 03:47:08;;;;;;;40.83;10.67;;;7.60;99.90;;;;;;5113038;28;20369;-76
2022/01/18 03:49:36;;;;;;;45.90;9.83;;;7.60;99.90;;;;;;5114149;28;20028;-75
2022/01/18 03:52:02;;;;;;;27.37;7.83;;;7.60;99.90;;;;;;5114068;28;20425;-76
2022/01/18 03:54:28;;;;;;;39.73;7.13;;;7.60;99.90;;;;;;5113965;28;20069;-76
2022/01/18 03:56:53;;;;;;;27.83;7.33;;;7.60;99.90;;;;;;5114033;28;20031;-76
2022/01/18 03:59:19;;;;;;;23.40;6.33;;;7.60;99.90;;;;;;5112742;28;20036;-74
2022/01/18 04:01:45;;;;;;;28.70;5.83;;;7.60;99.90;;;;;;5114142;28;20102;-74
2022/01/18 04:04:10;;;;;;;29.70;7.53;;;7.60;99.90;;;;;;5113884;28;20039;-74
2022/01/18 04:06:36;;;;;;;25.10;6.00;;;7.60;99.90;;;;;;5113953;28;20038;-74
2022/01/18 04:09:03;;;;;;;32.73;6.47;;;7.60;99.90;;;;;;5113862;28;20039;-74
2022/01/18 04:11:28;;;;;;;39.30;8.03;;;7.60;99.90;;;;;;5095531;28;20040;-74
2022/01/18 04:13:54;;;;;;;28.70;6.83;;;7.60;99.90;;;;;;5112448;28;20028;-74
2022/01/18 04:16:19;;;;;;;31.30;7.27;;;7.50;99.90;;;;;;5113780;28;20027;-74
2022/01/18 04:29:09;;;;;;;29.10;6.37;;;7.50;99.90;;;;;;5113584;28;20039;-74
2022/01/18 04:31:35;;;;;;;27.07;6.07;;;7.50;99.90;;;;;;5112121;28;20115;-74
2022/01/18 04:34:01;;;;;;;24.60;6.43;;;7.50;99.90;;;;;;5112169;28;20468;-74
2022/01/18 04:36:28;;;;;;;34.53;6.60;;;7.50;99.90;;;;;;5113694;28;20039;-74
2022/01/18 04:38:54;;;;;;;29.03;5.73;;;7.50;99.90;;;;;;5113510;28;20028;-76
2022/01/18 04:41:26;;;;;;;36.67;7.60;;;7.50;99.90;;;;;;5112320;28;20440;-76
2022/01/18 04:48:24;;;;;;;28.90;6.57;;;7.50;99.90;;;;;;5113340;28;20052;-76
2022/01/18 04:49:22;;;;;;;30.48;6.05;;;7.50;99.90;;;;;;5113361;28;20120;-76
2022/01/18 04:51:48;;;;;;;28.53;6.83;;;7.50;99.90;;;;;;5112073;28;20054;-75
2022/01/18 04:54:16;;;;;;;36.23;7.07;;;7.50;99.90;;;;;;5113521;28;20023;-76
2022/01/18 04:59:09;;;;;;;28.03;6.23;;;7.50;99.90;;;;;;5112523;28;20472;-74
2022/01/18 05:01:37;;;;;;;22.13;5.53;;;7.40;99.90;;;;;;5111919;28;20407;-74
2022/01/18 05:04:04;;;;;;;22.77;6.00;;;7.40;99.90;;;;;;5111926;28;20031;-74
2022/01/18 05:06:29;;;;;;;31.90;7.43;;;7.40;99.90;;;;;;5113237;28;20035;-74
2022/01/18 05:08:56;;;;;;;29.93;6.87;;;7.50;99.90;;;;;;5094978;28;20028;-74
2022/01/18 05:11:24;;;;;;;25.00;6.63;;;7.50;99.90;;;;;;5078379;28;20112;-75
2022/01/18 05:22:57;;;;;;;18.07;4.67;;;7.40;99.90;;;;;;5112205;28;20035;-75
2022/01/18 05:24:12;;;;;;;24.73;4.77;;;7.50;99.90;;;;;;5113604;28;20055;-75
2022/01/18 05:26:38;;;;;;;19.63;5.03;;;7.40;99.90;;;;;;5115805;28;20407;-76
2022/01/18 05:29:03;;;;;;;14.53;4.77;;;7.40;99.90;;;;;;5116590;28;20038;-76
2022/01/18 05:31:29;;;;;;;25.90;5.50;;;7.40;99.90;;;;;;5116748;28;20028;-76
2022/01/18 05:33:55;;;;;;;15.70;5.00;;;7.40;99.90;;;;;;5115320;28;20062;-76
2022/01/18 05:36:21;;;;;;;18.40;4.40;;;7.40;99.90;;;;;;5116613;28;20024;-74
2022/01/18 05:38:47;;;;;;;21.03;4.57;;;7.40;99.90;;;;;;5115333;28;20064;-74
2022/01/18 05:41:13;;;;;;;20.43;4.47;;;7.40;99.90;;;;;;5115518;28;20390;-73
2022/01/18 05:43:38;;;;;;;19.03;4.57;;;7.40;99.90;;;;;;5115255;28;20454;-74
2022/01/18 05:46:04;;;;;;;23.83;5.23;;;7.50;99.90;;;;;;5115161;28;20418;-73
2022/01/18 05:48:30;;;;;;;16.43;4.20;;;7.40;99.90;;;;;;5114354;28;20019;-74
2022/01/18 05:50:59;;;;;;;14.20;3.67;;;7.40;99.90;;;;;;5115862;28;20035;-73
2022/01/18 05:53:26;;;;;;;20.63;4.33;;;7.30;99.90;;;;;;5094654;28;20020;-73
2022/01/18 05:55:52;;;;;;;13.53;3.50;;;7.40;99.90;;;;;;5114251;28;20026;-76
2022/01/18 05:58:19;;;;;;;18.30;3.67;;;7.30;99.90;;;;;;5083141;28;20036;-76
2022/01/18 06:00:52;;;;;;;20.17;4.40;;;7.40;99.90;;;;;;5095864;28;20379;-76
2022/01/18 06:03:27;;;;;;;21.67;5.00;;;7.30;99.90;;;;;;5111889;28;20076;-76
2022/01/18 06:08:42;;;;;;;17.43;4.83;;;7.30;99.90;;;;;;5112874;28;20034;-73
2022/01/18 06:11:08;;;;;;;22.37;6.47;;;7.50;99.90;;;;;;5115358;28;20048;-73
2022/01/18 06:13:34;;;;;;;28.23;8.77;;;7.30;99.90;;;;;;5107622;28;20109;-73
2022/01/18 06:16:00;;;;;;;32.00;9.40;;;7.30;99.90;;;;;;5110422;28;20019;-73
2022/01/18 06:18:26;;;;;;;36.43;11.23;;;7.30;99.90;;;;;;5093874;28;20406;-73
2022/01/18 06:20:53;;;;;;;30.43;11.33;;;7.30;99.90;;;;;;5107905;28;20020;-74
2022/01/18 06:23:19;;;;;;;29.83;12.67;;;7.30;99.90;;;;;;5102594;28;20055;-76
2022/01/18 06:25:45;;;;;;;31.20;10.53;;;7.20;99.90;;;;;;5118641;27;20055;-75
2022/01/18 06:28:10;;;;;;;32.73;12.53;;;7.20;99.90;;;;;;5103129;28;20051;-74
2022/01/18 06:30:36;;;;;;;34.33;11.87;;;7.20;99.90;;;;;;5100903;28;20028;-75
2022/01/18 06:33:02;;;;;;;32.43;12.50;;;7.20;99.90;;;;;;5105894;28;20025;-75
2022/01/18 06:35:27;;;;;;;31.13;11.83;;;7.20;99.90;;;;;;5112062;28;20064;-75
2022/01/18 06:37:53;;;;;;;30.77;11.90;;;7.10;99.90;;;;;;5114193;28;20062;-75
2022/01/18 06:40:19;;;;;;;34.33;12.97;;;7.10;99.90;;;;;;5096804;28;20031;-74
2022/01/18 06:42:45;;;;;;;33.43;12.60;;;7.10;99.90;;;;;;5114017;28;20486;-78
2022/01/18 06:45:11;;;;;;;29.93;12.57;;;7.10;99.90;;;;;;5097136;28;20052;-75
2022/01/18 06:47:38;;;;;;;33.23;11.50;;;7.10;99.90;;;;;;5114061;28;20043;-78
2022/01/18 06:50:06;;;;;;;28.90;11.47;;;7.10;99.90;;;;;;5115180;28;20019;-78
2022/01/18 06:52:31;;;;;;;28.87;11.13;;;7.10;99.90;;;;;;5115069;28;20027;-78
2022/01/18 06:54:57;;;;;;;32.77;12.27;;;7.10;99.90;;;;;;5080107;28;20019;-75
2022/01/18 06:57:23;;;;;;;33.50;11.63;;;7.10;99.90;;;;;;5113775;28;20542;-75
2022/01/18 06:59:49;;;;;;;32.30;11.47;;;7.10;99.90;;;;;;5113803;28;20024;-75
2022/01/18 07:02:15;;;;;;;37.40;11.90;;;7.10;99.90;;;;;;5113937;28;20023;-78
2022/01/18 07:04:40;;;;;;;31.37;11.63;;;7.10;99.90;;;;;;5113798;28;20019;-74
2022/01/18 07:07:06;;;;;;;36.40;11.93;;;7.00;99.90;;;;;;5113961;28;20046;-74
2022/01/18 07:09:34;;;;;;;31.83;11.23;;;7.00;99.90;;;;;;5113421;28;20024;-77
2022/01/18 07:12:00;;;;;;;37.73;10.90;;;7.00;99.90;;;;;;5114456;28;20043;-75
2022/01/18 07:14:26;;;;;;;41.70;11.83;;;7.00;99.90;;;;;;5113126;28;20088;-75
2022/01/18 07:16:52;;;;;;;31.83;11.73;;;6.90;99.90;;;;;;5114702;28;20111;-77
2022/01/18 07:19:18;;;;;;;43.30;12.67;;;7.00;99.90;;;;;;5114443;28;20106;-77
2022/01/18 07:21:43;;;;;;;34.53;11.43;;;7.00;99.90;;;;;;5113103;28;20027;-77
2022/01/18 07:24:16;;;;;;;35.90;12.13;;;7.00;99.90;;;;;;5112700;28;20040;-77
2022/01/18 07:26:43;;;;;;;38.00;13.20;;;7.00;99.90;;;;;;5114266;28;20053;-77
2022/01/18 07:29:08;;;;;;;37.27;11.83;;;7.00;99.90;;;;;;5096002;28;20051;-77
2022/01/18 07:31:34;;;;;;;36.43;12.83;;;7.00;99.90;;;;;;5113832;28;20057;-77
2022/01/18 07:33:59;;;;;;;28.97;11.23;;;6.90;99.90;;;;;;5111947;28;20019;-76
2022/01/18 07:36:25;;;;;;;33.27;11.60;;;7.00;99.90;;;;;;5113414;28;20462;-75
2022/01/18 07:38:51;;;;;;;33.67;10.87;;;7.00;99.90;;;;;;5112949;28;20040;-76
2022/01/18 07:41:16;;;;;;;26.27;9.20;;;7.10;99.90;;;;;;5113717;28;20035;-76
2022/01/18 07:43:42;;;;;;;25.63;9.17;;;7.00;99.90;;;;;;5113874;28;20391;-75
2022/01/18 07:46:08;;;;;;;23.97;8.73;;;7.00;99.90;;;;;;5078830;28;20024;-76
2022/01/18 07:48:33;;;;;;;25.90;7.50;;;6.90;99.90;;;;;;5113431;28;20108;-75
2022/01/18 07:50:59;;;;;;;28.13;7.90;;;6.90;99.90;;;;;;5114132;28;20364;-76
2022/01/18 07:53:26;;;;;;;24.57;9.13;;;6.90;99.90;;;;;;5113767;28;20020;-76
2022/01/18 07:55:52;;;;;;;31.17;9.57;;;6.90;99.90;;;;;;5112707;28;20035;-75
2022/01/18 07:58:18;;;;;;;32.13;8.93;;;6.80;99.90;;;;;;5113353;28;20027;-75
2022/01/18 08:00:45;;;;;;;22.87;8.47;;;6.90;99.90;;;;;;5113273;28;20020;-74
2022/01/18 08:03:11;;;;;;;22.13;9.03;;;6.80;99.90;;;;;;5113408;28;20395;-74
2022/01/18 08:05:37;;;;;;;30.23;8.50;;;6.80;99.90;;;;;;5114612;28;20035;-75
2022/01/18 08:08:05;;;;;;;24.20;8.47;;;6.80;99.90;;;;;;5112662;28;20039;-74
2022/01/18 08:10:31;;;;;;;33.90;8.93;;;6.80;99.90;;;;;;5113112;28;20126;-74
2022/01/18 08:13:00;;;;;;;23.80;8.53;;;6.80;99.90;;;;;;5113348;28;20394;-75
2022/01/18 08:15:28;;;;;;;30.30;9.83;;;6.80;99.90;;;;;;5113228;28;20069;-75
2022/01/18 08:17:55;;;;;;;27.33;7.63;;;6.90;99.90;;;;;;5114870;28;20023;-75
2022/01/18 08:20:21;;;;;;;27.50;7.77;;;6.80;99.90;;;;;;5113386;28;20430;-75
2022/01/18 08:22:48;;;;;;;20.37;7.23;;;6.80;99.90;;;;;;5113270;28;20036;-75
2022/01/18 08:25:15;;;;;;;27.80;7.43;;;6.70;99.90;;;;;;5112785;28;20035;-75
2022/01/18 08:27:42;;;;;;;29.13;7.03;;;6.80;99.90;;;;;;5111639;28;20027;-75
2022/01/18 08:30:11;;;;;;;41.60;7.27;;;6.80;99.90;;;;;;5113465;28;20027;-75
2022/01/18 08:32:37;;;;;;;41.67;6.93;;;6.70;99.90;;;;;;5112380;28;20064;-75
2022/01/18 08:35:04;;;;;;;29.83;6.70;;;6.70;99.90;;;;;;5113509;28;20357;-76
2022/01/18 08:37:29;;;;;;;55.77;7.13;;;6.70;99.90;;;;;;5113270;28;20039;-75
2022/01/18 08:39:55;;;;;;;27.57;6.03;;;6.70;99.90;;;;;;5095593;28;20028;-76
2022/01/18 08:42:21;;;;;;;40.60;7.13;;;6.70;99.90;;;;;;5095311;28;20024;-76
2022/01/18 08:44:46;;;;;;;39.27;7.93;;;6.70;99.90;;;;;;5112319;28;20028;-76
2022/01/18 08:47:17;;;;;;;46.00;7.83;;;6.70;99.90;;;;;;5091709;28;20024;-76
2022/01/18 08:49:44;;;;;;;64.40;7.33;;;6.70;99.90;;;;;;5108670;28;20559;-76
2022/01/18 08:52:10;;;;;;;31.10;5.97;;;6.70;99.90;;;;;;5108638;28;20024;-76
2022/01/18 08:54:36;;;;;;;40.40;6.60;;;6.60;99.90;;;;;;5107802;28;20039;-77
2022/01/18 08:57:02;;;;;;;54.87;6.77;;;6.60;99.90;;;;;;5111675;28;20036;-76
2022/01/18 08:59:29;;;;;;;52.80;6.67;;;6.60;99.90;;;;;;5109919;28;20042;-76
2022/01/18 09:01:57;;;;;;;50.33;6.83;;;6.70;99.90;;;;;;5117181;28;20026;-76
2022/01/18 09:04:23;;;;;;;88.60;7.70;;;6.60;99.90;;;;;;5117151;28;20479;-77
2022/01/18 09:06:50;;;;;;;83.50;7.73;;;6.60;99.90;;;;;;5117253;28;20039;-76
2022/01/18 09:09:18;;;;;;;53.67;5.73;;;6.60;99.90;;;;;;5115880;28;20024;-76
2022/01/18 09:11:47;;;;;;;59.77;7.23;;;6.50;99.90;;;;;;5115734;28;20126;-77
2022/01/18 09:14:15;;;;;;;70.00;7.27;;;6.50;99.90;;;;;;5098968;28;20047;-76
2022/01/18 09:16:42;;;;;;;42.33;6.30;;;6.50;99.90;;;;;;5098861;28;20026;-76
2022/01/18 09:19:07;;;;;;;51.67;7.30;;;6.40;99.90;;;;;;5116998;28;20031;-76
2022/01/18 09:21:33;;;;;;;77.53;7.63;;;6.40;99.90;;;;;;5116973;28;20032;-76
2022/01/18 09:24:01;;;;;;;53.47;6.80;;;6.50;99.90;;;;;;5094837;28;20061;-76
2022/01/18 09:26:27;;;;;;;54.73;6.73;;;6.50;99.90;;;;;;5098957;28;20046;-76
2022/01/18 09:28:53;;;;;;;51.83;6.13;;;6.50;99.90;;;;;;5114926;28;20474;-77
2022/01/18 09:31:19;;;;;;;64.40;7.13;;;6.50;99.90;;;;;;5116659;28;20024;-76
2022/01/18 09:33:45;;;;;;;44.30;6.60;;;6.50;99.90;;;;;;5116814;28;20530;-76
2022/01/18 09:36:11;;;;;;;50.47;7.13;;;6.50;99.90;;;;;;5098093;28;20042;-77
2022/01/18 09:38:37;;;;;;;67.53;7.37;;;6.40;99.90;;;;;;5098470;28;20032;-76
2022/01/18 09:41:09;;;;;;;46.10;6.17;;;6.40;99.90;;;;;;5116685;28;20039;-77
2022/01/18 09:43:37;;;;;;;64.17;8.13;;;6.40;99.90;;;;;;5115540;28;20383;-76
2022/01/18 09:46:05;;;;;;;40.60;6.90;;;6.40;99.90;;;;;;5116434;28;20360;-76
2022/01/18 09:48:31;;;;;;;43.80;7.60;;;6.50;99.90;;;;;;5114952;28;20481;-76
2022/01/18 09:50:59;;;;;;;51.47;7.33;;;6.40;99.90;;;;;;5116399;28;20460;-76
2022/01/18 09:53:25;;;;;;;44.53;6.63;;;6.40;99.90;;;;;;5115042;28;20486;-76
2022/01/18 09:55:53;;;;;;;34.00;7.70;;;6.50;99.90;;;;;;5098157;28;20031;-76
2022/01/18 09:58:19;;;;;;;42.37;6.43;;;6.40;99.90;;;;;;5115908;28;20027;-76
2022/01/18 10:00:46;;;;;;;51.90;7.00;;;6.40;99.90;;;;;;5114208;28;20055;-76
2022/01/18 10:03:41;;;;;;;44.77;6.40;;;6.40;99.90;;;;;;5114782;28;20024;-76
2022/01/18 10:06:08;;;;;;;24.77;6.67;;;6.40;99.90;;;;;;5102296;28;20088;-76
2022/01/18 10:08:36;;;;;;;37.83;5.93;;;6.40;99.90;;;;;;5088764;28;20032;-76
2022/01/18 10:11:17;;;;;;;31.73;4.73;;;6.40;99.90;;;;;;5113726;28;20483;-76
2022/01/18 10:13:45;;;;;;;26.93;5.30;;;6.50;99.90;;;;;;5112742;28;20020;-76
2022/01/18 10:16:23;;;;;;;19.93;4.43;;;6.50;99.90;;;;;;5114640;28;20065;-77
2022/01/18 10:18:53;;;;;;;25.17;4.77;;;6.50;99.90;;;;;;5115499;28;20375;-76
2022/01/18 10:21:35;;;;;;;25.63;5.50;;;6.60;99.90;;;;;;5114532;28;20048;-76
2022/01/18 10:24:16;;;;;;;25.43;4.97;;;6.50;99.90;;;;;;5114367;28;20026;-76
2022/01/18 10:26:43;;;;;;;29.60;5.20;;;6.50;99.90;;;;;;5114386;28;20027;-76
2022/01/18 10:29:10;;;;;;;34.97;4.67;;;6.50;99.90;;;;;;5115619;28;20369;-77
2022/01/18 10:31:56;;;;;;;42.80;5.73;;;6.50;99.90;;;;;;5115426;28;20099;-76
2022/01/18 10:37:07;;;;;;;37.27;4.60;;;6.50;99.90;;;;;;5114955;28;20357;-76
2022/01/18 10:39:36;;;;;;;19.33;5.27;;;6.60;99.90;;;;;;5115414;28;20220;-76
2022/01/18 10:42:24;;;;;;;27.87;4.93;;;6.60;99.90;;;;;;5115283;28;20031;-76
2022/01/18 10:45:07;;;;;;;17.30;4.00;;;6.60;99.90;;;;;;5113299;28;20024;-76
2022/01/18 10:47:34;;;;;;;26.90;4.20;;;6.60;99.90;;;;;;5113995;28;20055;-76
2022/01/18 10:50:08;;;;;;;30.87;4.30;;;6.50;99.90;;;;;;5113933;28;20057;-76
2022/01/18 10:52:34;;;;;;;35.60;4.47;;;6.60;99.90;;;;;;5113920;28;20020;-76
2022/01/18 10:55:00;;;;;;;19.27;4.57;;;6.50;99.90;;;;;;5113732;28;20416;-77
2022/01/18 10:57:33;;;;;;;13.50;4.37;;;6.50;99.90;;;;;;5113683;28;20019;-76
2022/01/18 11:00:09;;;;;;;26.13;4.57;;;6.60;99.90;;;;;;5114757;28;20076;-77
2022/01/18 11:02:37;;;;;;;15.90;4.47;;;6.60;99.90;;;;;;5113489;28;20114;-74
2022/01/18 11:05:24;;;;;;;17.83;4.67;;;6.60;99.90;;;;;;5114597;28;20034;-76
2022/01/18 11:07:50;;;;;;;16.10;3.60;;;6.70;99.90;;;;;;5113431;28;20110;-76
2022/01/18 11:10:18;;;;;;;11.50;4.20;;;6.60;99.90;;;;;;5114680;28;20484;-74
2022/01/18 11:13:03;;;;;;;19.37;5.20;;;6.60;99.90;;;;;;5113180;28;20371;-75
2022/01/18 11:15:29;;;;;;;22.03;5.00;;;6.60;99.90;;;;;;5114548;28;20533;-76
2022/01/18 11:18:03;;;;;;;24.77;5.93;;;6.60;99.90;;;;;;5113257;28;20114;-76
2022/01/18 11:20:31;;;;;;;34.03;6.03;;;6.60;99.90;;;;;;5113252;28;20164;-74
2022/01/18 11:22:57;;;;;;;16.20;5.67;;;6.60;99.90;;;;;;5114047;28;20078;-74
2022/01/18 11:25:23;;;;;;;36.00;6.70;;;6.60;99.90;;;;;;5096262;28;20031;-75
2022/01/18 11:27:52;;;;;;;22.57;6.00;;;6.70;99.90;;;;;;5114424;28;20121;-74
2022/01/18 11:30:24;;;;;;;19.13;6.17;;;6.70;99.90;;;;;;5112668;28;20023;-74
2022/01/18 11:32:55;;;;;;;20.90;6.43;;;6.70;99.90;;;;;;5114256;28;20035;-75
2022/01/18 11:35:29;;;;;;;33.20;6.80;;;6.70;99.90;;;;;;5114012;28;20102;-74
2022/01/18 11:37:59;;;;;;;19.27;6.30;;;6.80;99.90;;;;;;5113681;28;20023;-74
2022/01/18 11:40:25;;;;;;;26.20;8.17;;;6.80;99.90;;;;;;5113615;28;20027;-75
2022/01/18 11:42:54;;;;;;;23.27;6.40;;;6.80;99.90;;;;;;5113424;28;20016;-75
2022/01/18 11:45:26;;;;;;;20.00;5.83;;;6.80;99.90;;;;;;5112298;28;20427;-74
2022/01/18 11:48:13;;;;;;;22.67;6.73;;;6.70;99.90;;;;;;5110197;28;20031;-74
2022/01/18 11:50:42;;;;;;;18.87;6.43;;;6.80;99.90;;;;;;5111428;28;20023;-74
2022/01/18 11:53:39;;;;;;;21.73;7.73;;;6.80;99.90;;;;;;5109761;28;20026;-74
2022/01/18 11:56:11;;;;;;;16.90;6.40;;;6.80;99.90;;;;;;5113168;28;20032;-74
2022/01/18 11:58:37;;;;;;;26.73;7.27;;;6.80;99.90;;;;;;5112349;28;20024;-74
2022/01/18 12:01:03;;;;;;;19.67;6.47;;;6.80;99.90;;;;;;5113937;28;20031;-74
2022/01/18 12:03:32;;;;;;;19.77;7.57;;;6.80;99.90;;;;;;5112555;28;20085;-74
2022/01/18 12:06:00;;;;;;;16.93;7.00;;;6.80;99.90;;;;;;5113372;28;20384;-74
2022/01/18 12:08:39;;;;;;;17.47;7.83;;;6.80;99.90;;;;;;5113375;28;20020;-76
2022/01/18 12:11:25;;;;;;;16.67;7.13;;;6.80;99.90;;;;;;5111927;28;20495;-76
2022/01/18 12:13:57;;;;;;;19.13;7.00;;;6.90;99.90;;;;;;5093381;28;20425;-74
2022/01/18 12:16:27;;;;;;;18.90;6.60;;;6.90;99.90;;;;;;5113633;28;20055;-74
2022/01/18 12:18:54;;;;;;;19.20;7.33;;;6.90;99.90;;;;;;5113724;28;20110;-76
2022/01/18 12:21:26;;;;;;;20.73;7.83;;;6.90;99.90;;;;;;5112551;28;20028;-76
2022/01/18 12:23:52;;;;;;;16.70;6.43;;;6.90;99.90;;;;;;5113533;28;20030;-77
2022/01/18 12:29:21;;;;;;;16.70;7.47;;;7.00;99.90;;;;;;5113695;28;20059;-76
2022/01/18 12:34:31;;;;;;;16.57;8.20;;;7.10;99.90;;;;;;5116390;28;20039;-76
2022/01/18 12:36:57;;;;;;;19.08;7.70;;;7.10;99.90;;;;;;5117401;28;20026;-76
2022/01/18 12:39:23;;;;;;;20.17;7.33;;;7.10;99.90;;;;;;5117847;28;20410;-76
2022/01/18 12:41:56;;;;;;;18.80;7.23;;;7.10;99.90;;;;;;5116123;28;20483;-76
2022/01/18 12:44:22;;;;;;;20.37;7.97;;;7.10;99.90;;;;;;5117758;28;20016;-76
2022/01/18 12:46:56;;;;;;;17.73;7.20;;;7.20;99.90;;;;;;5116467;28;20479;-76
2022/01/18 12:49:22;;;;;;;19.55;8.43;;;7.20;99.90;;;;;;5117477;28;20065;-76
2022/01/18 12:51:55;;;;;;;19.63;8.23;;;7.20;99.90;;;;;;5117532;28;20076;-76
2022/01/18 12:54:34;;;;;;;21.20;8.07;;;7.20;99.90;;;;;;5115844;28;20032;-76
2022/01/18 12:57:14;;;;;;;20.13;8.10;;;7.30;99.90;;;;;;5115976;28;20022;-75
2022/01/18 13:00:09;;;;;;;20.10;8.07;;;7.40;99.90;;;;;;5114679;28;20030;-76
2022/01/18 13:02:35;;;;;;;19.25;8.45;;;7.40;99.90;;;;;;5116045;28;20392;-76
2022/01/18 13:05:06;;;;;;;20.17;7.23;;;7.50;99.90;;;;;;5099212;28;20435;-76
2022/01/18 13:07:32;;;;;;;17.43;7.93;;;7.50;99.90;;;;;;5117279;28;20020;-77
2022/01/18 13:10:04;;;;;;;18.13;7.93;;;7.60;99.90;;;;;;5116868;28;20080;-77
2022/01/18 13:12:34;;;;;;;23.73;8.20;;;7.60;99.90;;;;;;5115764;28;20023;-76
2022/01/18 13:15:02;;;;;;;20.57;8.63;;;7.70;99.90;;;;;;5117139;28;20059;-77
2022/01/18 13:26:52;;;;;;;19.83;8.33;;;8.00;99.90;;;;;;5076245;28;20036;-77
2022/01/18 13:29:24;;;;;;;22.03;8.50;;;8.00;99.90;;;;;;5096240;28;20028;-77
2022/01/18 13:32:17;;;;;;;18.47;8.00;;;8.10;99.90;;;;;;5096288;28;20074;-77
2022/01/18 13:34:51;;;;;;;22.30;8.30;;;8.10;99.90;;;;;;5096209;28;20157;-77
2022/01/18 13:37:19;;;;;;;24.73;8.45;;;8.20;99.90;;;;;;5096227;28;20026;-75
2022/01/18 13:39:56;;;;;;;27.87;9.10;;;8.40;99.90;;;;;;5095951;28;20052;-76
2022/01/18 13:42:33;;;;;;;21.07;8.40;;;8.50;99.90;;;;;;5095892;28;20024;-74
2022/01/18 13:45:11;;;;;;;22.53;7.73;;;8.70;99.90;;;;;;5095428;28;20028;-77
2022/01/18 13:47:39;;;;;;;28.97;8.57;;;8.70;99.90;;;;;;5114947;28;20022;-77
2022/01/18 13:50:05;;;;;;;25.87;8.57;;;8.90;99.90;;;;;;5115659;28;20028;-77
2022/01/18 13:52:31;;;;;;;20.33;7.73;;;9.00;99.90;;;;;;5114897;28;20039;-74
2022/01/18 13:54:57;;;;;;;24.87;7.70;;;9.10;99.90;;;;;;5097834;28;20492;-74
2022/01/18 13:57:23;;;;;;;25.10;7.40;;;9.20;99.90;;;;;;5113107;28;20049;-77
2022/01/18 13:59:51;;;;;;;22.87;6.90;;;9.20;99.90;;;;;;5114277;28;20023;-76
2022/01/18 14:02:20;;;;;;;23.47;6.57;;;9.20;99.90;;;;;;5114688;28;20106;-76
2022/01/18 14:04:48;;;;;;;20.07;6.23;;;9.20;99.80;;;;;;5116086;28;20027;-77
2022/01/18 14:07:14;;;;;;;26.90;6.27;;;9.10;99.20;;;;;;5097929;28;20028;-75
2022/01/18 14:09:40;;;;;;;26.80;6.47;;;9.00;98.40;;;;;;5114522;28;20039;-74
2022/01/18 14:12:13;;;;;;;25.33;6.00;;;9.00;98.10;;;;;;5115850;28;20047;-76
2022/01/18 14:14:42;;;;;;;27.75;6.85;;;8.90;98.10;;;;;;5102686;28;20028;-74
2022/01/18 14:17:15;;;;;;;24.73;5.43;;;8.80;98.20;;;;;;5092867;28;20472;-74
2022/01/18 14:19:43;;;;;;;20.27;6.37;;;8.80;98.00;;;;;;5093249;28;20040;-74